Time;durP1;ratioP1;P1;durP2;ratioP2;P2;SDS_P1;SDS_P2;PMS_P1;PMS_P2;Temp;Humidity;BMP_temperature;BMP_pressure;BME280_temperature;BME280_humidity;BME280_pressure;Samples;Min_cycle;Max_cycle;Signal;HPM_P1;HPM_P2
2023/06/23 00:00:36;;;;;;;170.95;114.45;;;;;;;;;;4958055;29;20535;-72
2023/06/23 00:03:02;;;;;;;148.85;103.35;;;;;;;;;;4958092;29;20060;-71
2023/06/23 00:05:29;;;;;;;92.18;57.53;;;;;;;;;;4957800;29;20058;-72
2023/06/23 00:07:56;;;;;;;96.03;57.78;;;;;;;;;;4958006;29;20015;-72
2023/06/23 00:10:26;;;;;;;101.50;56.30;;;;;;;;;;4958041;29;20477;-72
2023/06/23 00:12:52;;;;;;;82.57;52.67;;;;;;;;;;4957534;29;20395;-72
2023/06/23 00:15:19;;;;;;;87.70;55.10;;;;;;;;;;4958346;29;20026;-71
2023/06/23 00:17:47;;;;;;;85.13;51.92;;;;;;;;;;4957734;29;20015;-73
2023/06/23 00:20:14;;;;;;;84.53;53.28;;;;;;;;;;4957535;29;20135;-73
2023/06/23 00:22:41;;;;;;;97.13;60.90;;;;;;;;;;4957781;29;20023;-70
2023/06/23 00:25:11;;;;;;;98.38;71.18;;;;;;;;;;4957822;29;20031;-72
2023/06/23 00:27:44;;;;;;;110.97;79.40;;;;;;;;;;4957606;29;20023;-71
2023/06/23 00:30:12;;;;;;;96.57;70.80;;;;;;;;;;4958603;29;20035;-69
2023/06/23 00:32:39;;;;;;;208.13;162.20;;;;;;;;;;4958342;29;20051;-64
2023/06/23 00:35:07;;;;;;;84.95;62.75;;;;;;;;;;4958203;29;20031;-64
2023/06/23 00:37:37;;;;;;;75.13;55.72;;;;;;;;;;4958815;29;20034;-63
2023/06/23 00:40:10;;;;;;;88.82;62.20;;;;;;;;;;4958483;29;20027;-63
2023/06/23 00:42:47;;;;;;;99.80;68.68;;;;;;;;;;4958910;29;20031;-63
2023/06/23 00:45:13;;;;;;;272.80;190.23;;;;;;;;;;4958149;28;20032;-64
2023/06/23 00:47:46;;;;;;;104.05;74.63;;;;;;;;;;4958008;29;20078;-66
2023/06/23 00:50:15;;;;;;;119.80;78.53;;;;;;;;;;4958262;29;20038;-66
2023/06/23 00:52:49;;;;;;;107.90;74.03;;;;;;;;;;4958469;29;20460;-64
2023/06/23 00:55:26;;;;;;;105.32;77.72;;;;;;;;;;4958307;29;20488;-64
2023/06/23 00:57:54;;;;;;;115.53;80.47;;;;;;;;;;4958634;29;20027;-65
2023/06/23 01:00:21;;;;;;;117.43;89.07;;;;;;;;;;4958087;29;20235;-64
2023/06/23 01:03:02;;;;;;;118.93;84.43;;;;;;;;;;4958624;29;20027;-64
2023/06/23 01:05:35;;;;;;;123.75;82.65;;;;;;;;;;4958025;29;20031;-64
2023/06/23 01:08:03;;;;;;;113.03;73.60;;;;;;;;;;4958032;29;20113;-62
2023/06/23 01:10:48;;;;;;;125.28;76.95;;;;;;;;;;4958163;29;20365;-63
2023/06/23 01:13:18;;;;;;;109.55;73.95;;;;;;;;;;4958430;29;20391;-62
2023/06/23 01:15:52;;;;;;;116.43;73.47;;;;;;;;;;4958130;29;20022;-62
2023/06/23 01:18:30;;;;;;;108.15;70.28;;;;;;;;;;4957936;29;20024;-61
2023/06/23 01:21:01;;;;;;;102.85;65.60;;;;;;;;;;4958739;29;20106;-64
2023/06/23 01:23:47;;;;;;;103.43;65.85;;;;;;;;;;4957948;29;20039;-64
2023/06/23 01:26:32;;;;;;;72.97;48.03;;;;;;;;;;4958123;29;20241;-63
2023/06/23 01:29:00;;;;;;;52.47;38.03;;;;;;;;;;4958020;29;20031;-63
2023/06/23 01:31:37;;;;;;;50.42;36.83;;;;;;;;;;4969919;28;20238;-62
2023/06/23 01:34:07;;;;;;;45.72;34.22;;;;;;;;;;4966932;28;20027;-63
2023/06/23 01:36:40;;;;;;;46.45;32.45;;;;;;;;;;4966448;28;20102;-62
2023/06/23 01:39:07;;;;;;;54.67;37.08;;;;;;;;;;4968262;28;20381;-62
2023/06/23 01:41:42;;;;;;;47.45;35.28;;;;;;;;;;4976877;28;20074;-62
2023/06/23 01:44:14;;;;;;;71.38;49.15;;;;;;;;;;4976350;28;20031;-64
2023/06/23 01:46:42;;;;;;;99.72;69.22;;;;;;;;;;4967486;28;20110;-63
2023/06/23 01:49:10;;;;;;;64.63;48.95;;;;;;;;;;4968022;28;20015;-63
2023/06/23 01:51:38;;;;;;;50.80;37.33;;;;;;;;;;4967558;28;20447;-63
2023/06/23 01:54:06;;;;;;;52.75;37.40;;;;;;;;;;4964211;28;20023;-62
2023/06/23 01:56:33;;;;;;;43.33;30.23;;;;;;;;;;4964172;28;20019;-62
2023/06/23 01:59:00;;;;;;;44.17;29.52;;;;;;;;;;4965933;28;20034;-63
2023/06/23 02:01:28;;;;;;;47.08;28.90;;;;;;;;;;4964485;28;20461;-63
2023/06/23 02:03:56;;;;;;;44.30;29.05;;;;;;;;;;4965004;28;20415;-68
2023/06/23 02:06:23;;;;;;;41.63;29.20;;;;;;;;;;4965861;28;20023;-69
2023/06/23 02:08:50;;;;;;;39.78;30.88;;;;;;;;;;4964292;28;20061;-68
2023/06/23 02:11:17;;;;;;;38.45;28.80;;;;;;;;;;4962735;28;20508;-67
2023/06/23 02:13:45;;;;;;;39.30;29.17;;;;;;;;;;4963774;28;20380;-70
2023/06/23 02:16:13;;;;;;;47.53;31.35;;;;;;;;;;4961907;28;20078;-70
2023/06/23 02:18:41;;;;;;;52.35;39.53;;;;;;;;;;4965784;28;20027;-70
2023/06/23 02:21:09;;;;;;;47.10;30.23;;;;;;;;;;4966161;28;20019;-71
2023/06/23 02:23:36;;;;;;;37.92;27.95;;;;;;;;;;4967061;28;20027;-70
2023/06/23 02:26:03;;;;;;;37.90;27.90;;;;;;;;;;4957650;28;20086;-70
2023/06/23 02:28:30;;;;;;;37.95;26.38;;;;;;;;;;4956890;29;20031;-70
2023/06/23 02:30:57;;;;;;;37.25;28.25;;;;;;;;;;4956854;29;20027;-70
2023/06/23 02:33:23;;;;;;;33.60;26.23;;;;;;;;;;4956624;29;20121;-70
2023/06/23 02:35:53;;;;;;;34.90;26.13;;;;;;;;;;4957037;29;20473;-70
2023/06/23 02:38:21;;;;;;;39.03;25.23;;;;;;;;;;4956497;29;20178;-70
2023/06/23 02:40:48;;;;;;;35.80;27.30;;;;;;;;;;4955728;29;20044;-70
2023/06/23 02:43:27;;;;;;;64.90;38.25;;;;;;;;;;4955772;29;20034;-70
2023/06/23 02:45:55;;;;;;;41.63;28.20;;;;;;;;;;4955754;29;20027;-70
2023/06/23 02:48:27;;;;;;;50.80;25.77;;;;;;;;;;4955784;29;20427;-71
2023/06/23 02:50:53;;;;;;;;;;;;;;;;;;4956123;29;20034;-71
2023/06/23 02:53:22;;;;;;;33.05;24.77;;;;;;;;;;4965292;28;20287;-72
2023/06/23 02:55:50;;;;;;;31.98;24.67;;;;;;;;;;4969331;28;20023;-72
2023/06/23 02:58:18;;;;;;;30.73;24.00;;;;;;;;;;4969789;28;20045;-72
2023/06/23 03:00:45;;;;;;;33.15;24.95;;;;;;;;;;4957297;28;20388;-73
2023/06/23 03:03:14;;;;;;;35.85;25.02;;;;;;;;;;4957065;28;20051;-73
2023/06/23 03:05:41;;;;;;;29.95;23.63;;;;;;;;;;4963630;28;20019;-73
2023/06/23 03:08:08;;;;;;;33.92;26.27;;;;;;;;;;4965367;28;20049;-73
2023/06/23 03:10:35;;;;;;;31.13;23.77;;;;;;;;;;4969104;28;20020;-71
2023/06/23 03:13:01;;;;;;;80.07;57.15;;;;;;;;;;4967346;28;20035;-70
2023/06/23 03:15:29;;;;;;;39.15;29.38;;;;;;;;;;4967566;28;20046;-72
2023/06/23 03:18:05;;;;;;;35.20;25.85;;;;;;;;;;4967031;28;20026;-72
2023/06/23 03:20:38;;;;;;;31.17;24.13;;;;;;;;;;4972114;28;20019;-75
2023/06/23 03:23:06;;;;;;;36.95;25.90;;;;;;;;;;4966438;28;20070;-73
2023/06/23 03:25:33;;;;;;;30.25;23.83;;;;;;;;;;4958972;29;20035;-72
2023/06/23 03:28:03;;;;;;;36.17;27.42;;;;;;;;;;4960767;28;20495;-70
2023/06/23 03:31:02;;;;;;;69.80;56.72;;;;;;;;;;4966403;28;20086;-74
2023/06/23 03:33:33;;;;;;;40.85;32.65;;;;;;;;;;4916157;28;20082;-72
2023/06/23 03:36:03;;;;;;;37.22;27.77;;;;;;;;;;4967943;28;20127;-72
2023/06/23 03:38:32;;;;;;;31.83;23.88;;;;;;;;;;4966761;28;20420;-69
2023/06/23 03:41:02;;;;;;;34.55;24.77;;;;;;;;;;4966131;28;20023;-71
2023/06/23 03:43:32;;;;;;;35.90;24.63;;;;;;;;;;4966552;28;20027;-73
2023/06/23 03:46:05;;;;;;;27.75;22.65;;;;;;;;;;4966717;28;20420;-71
2023/06/23 03:48:33;;;;;;;29.63;21.90;;;;;;;;;;4968281;28;20023;-70
2023/06/23 03:51:01;;;;;;;32.55;22.30;;;;;;;;;;4967050;28;20046;-69
2023/06/23 03:53:28;;;;;;;28.95;19.80;;;;;;;;;;4968689;28;20031;-71
2023/06/23 03:55:58;;;;;;;51.65;35.78;;;;;;;;;;4974685;28;20033;-70
2023/06/23 03:58:25;;;;;;;32.97;23.85;;;;;;;;;;4979457;28;20027;-70
2023/06/23 04:00:56;;;;;;;47.70;31.05;;;;;;;;;;4979532;28;20041;-71
2023/06/23 04:03:24;;;;;;;27.65;21.20;;;;;;;;;;4979251;28;20054;-71
2023/06/23 04:05:50;;;;;;;30.17;19.75;;;;;;;;;;4971448;28;20484;-70
2023/06/23 04:08:19;;;;;;;23.73;17.75;;;;;;;;;;4959284;28;20090;-69
2023/06/23 04:10:47;;;;;;;38.22;20.08;;;;;;;;;;4958054;29;20166;-69
2023/06/23 04:13:15;;;;;;;27.40;20.70;;;;;;;;;;4957928;29;20027;-70
2023/06/23 04:15:41;;;;;;;25.88;18.65;;;;;;;;;;4957643;29;20027;-70
2023/06/23 04:18:11;;;;;;;32.85;21.48;;;;;;;;;;4959093;28;20030;-70
2023/06/23 04:20:39;;;;;;;27.05;18.95;;;;;;;;;;4965199;28;20047;-68
2023/06/23 04:23:06;;;;;;;30.98;20.88;;;;;;;;;;4971365;28;20027;-72
2023/06/23 04:25:33;;;;;;;27.05;20.25;;;;;;;;;;4959806;28;20526;-70
2023/06/23 04:28:02;;;;;;;26.70;21.08;;;;;;;;;;4977271;28;20035;-71
2023/06/23 04:30:29;;;;;;;25.85;19.33;;;;;;;;;;4967902;28;20380;-71
2023/06/23 04:32:56;;;;;;;26.80;17.90;;;;;;;;;;4965380;28;20070;-70
2023/06/23 04:35:23;;;;;;;27.17;19.25;;;;;;;;;;4966108;28;20058;-71
2023/06/23 04:38:09;;;;;;;20.63;15.73;;;;;;;;;;4967563;28;20030;-70
2023/06/23 04:40:45;;;;;;;18.63;13.63;;;;;;;;;;4965161;28;20023;-68
2023/06/23 04:43:17;;;;;;;22.10;14.50;;;;;;;;;;4964823;28;20031;-68
2023/06/23 04:45:56;;;;;;;23.10;15.98;;;;;;;;;;4967861;28;20550;-71
2023/06/23 04:48:25;;;;;;;21.17;16.95;;;;;;;;;;4976790;28;20045;-77
2023/06/23 04:50:53;;;;;;;28.23;18.63;;;;;;;;;;4976765;28;20031;-76
2023/06/23 04:53:22;;;;;;;24.10;14.85;;;;;;;;;;4976565;28;20424;-76
2023/06/23 04:55:52;;;;;;;20.02;14.48;;;;;;;;;;4976552;28;20057;-76
2023/06/23 04:58:19;;;;;;;22.42;13.93;;;;;;;;;;4976823;28;20027;-74
2023/06/23 05:00:46;;;;;;;25.80;15.60;;;;;;;;;;4976496;28;20019;-74
2023/06/23 05:03:14;;;;;;;18.05;13.18;;;;;;;;;;4976162;28;20423;-74
2023/06/23 05:05:41;;;;;;;25.98;17.00;;;;;;;;;;4967199;28;20078;-73
2023/06/23 05:08:08;;;;;;;21.67;14.25;;;;;;;;;;4965867;28;20038;-73
2023/06/23 05:10:36;;;;;;;25.17;15.35;;;;;;;;;;4968722;28;20035;-72
2023/06/23 05:13:04;;;;;;;24.25;15.02;;;;;;;;;;4948920;28;20034;-77
2023/06/23 05:15:31;;;;;;;27.20;17.25;;;;;;;;;;4965313;28;20019;-77
2023/06/23 05:17:58;;;;;;;21.38;14.48;;;;;;;;;;4966187;28;20019;-72
2023/06/23 05:20:27;;;;;;;21.88;14.73;;;;;;;;;;4964964;28;20054;-72
2023/06/23 05:22:56;;;;;;;17.17;14.02;;;;;;;;;;4964982;28;20027;-73
2023/06/23 05:25:25;;;;;;;21.00;14.27;;;;;;;;;;4966144;28;20491;-74
2023/06/23 05:27:57;;;;;;;17.73;11.75;;;;;;;;;;4965601;28;20436;-73
2023/06/23 05:30:24;;;;;;;17.83;12.43;;;;;;;;;;4957366;28;20030;-73
2023/06/23 05:32:51;;;;;;;21.67;11.77;;;;;;;;;;4962526;28;20053;-73
2023/06/23 05:35:19;;;;;;;18.95;12.05;;;;;;;;;;4965326;28;20081;-73
2023/06/23 05:37:49;;;;;;;19.42;12.90;;;;;;;;;;4948553;28;20074;-73
2023/06/23 05:40:16;;;;;;;15.20;12.50;;;;;;;;;;4964302;28;20102;-71
2023/06/23 05:42:43;;;;;;;15.07;12.00;;;;;;;;;;4956728;29;20031;-73
2023/06/23 05:45:10;;;;;;;17.65;12.93;;;;;;;;;;4956315;29;20440;-73
2023/06/23 05:47:50;;;;;;;15.70;13.80;;;;;;;;;;4956274;29;20024;-72
2023/06/23 05:50:22;;;;;;;14.45;12.95;;;;;;;;;;4956185;29;20038;-72
2023/06/23 05:52:54;;;;;;;22.00;16.08;;;;;;;;;;4958978;28;20065;-72
2023/06/23 05:55:22;;;;;;;22.55;14.93;;;;;;;;;;4975254;28;20023;-74
2023/06/23 05:57:50;;;;;;;18.65;12.10;;;;;;;;;;4975266;28;20077;-72
2023/06/23 06:00:19;;;;;;;15.05;11.50;;;;;;;;;;4975558;28;20030;-73
2023/06/23 06:02:47;;;;;;;20.30;12.15;;;;;;;;;;4975272;28;20065;-73
2023/06/23 06:05:17;;;;;;;15.40;11.80;;;;;;;;;;4975022;28;20038;-73
2023/06/23 06:07:45;;;;;;;19.63;11.50;;;;;;;;;;4975192;28;20069;-73
2023/06/23 06:10:13;;;;;;;13.32;10.70;;;;;;;;;;4975219;28;20027;-74
2023/06/23 06:12:40;;;;;;;13.30;11.63;;;;;;;;;;4973794;28;20038;-74
2023/06/23 06:15:07;;;;;;;13.65;10.85;;;;;;;;;;4975016;28;20027;-73
2023/06/23 06:17:35;;;;;;;13.70;10.63;;;;;;;;;;4974958;28;20098;-74
2023/06/23 06:20:03;;;;;;;16.90;10.65;;;;;;;;;;4974697;28;20026;-73
2023/06/23 06:22:32;;;;;;;17.08;10.70;;;;;;;;;;4974699;28;20027;-74
2023/06/23 06:25:00;;;;;;;15.95;11.15;;;;;;;;;;4973262;28;20022;-74
2023/06/23 06:27:27;;;;;;;16.17;10.15;;;;;;;;;;4973538;28;20046;-75
2023/06/23 06:29:56;;;;;;;12.80;11.23;;;;;;;;;;4974351;28;20030;-75
2023/06/23 06:32:25;;;;;;;17.55;12.50;;;;;;;;;;4974092;28;20054;-75
2023/06/23 06:34:52;;;;;;;18.00;11.57;;;;;;;;;;4974344;28;20279;-75
2023/06/23 06:37:19;;;;;;;16.83;11.82;;;;;;;;;;4974572;28;20049;-74
2023/06/23 06:39:46;;;;;;;13.25;11.60;;;;;;;;;;4974707;28;20046;-74
2023/06/23 06:42:13;;;;;;;18.75;11.88;;;;;;;;;;4974133;28;20015;-75
2023/06/23 06:44:40;;;;;;;16.92;12.80;;;;;;;;;;4974591;28;20033;-74
2023/06/23 06:47:07;;;;;;;13.65;11.38;;;;;;;;;;4974626;28;20415;-72
2023/06/23 06:49:34;;;;;;;18.15;10.38;;;;;;;;;;4974576;28;20050;-72
2023/06/23 06:52:03;;;;;;;13.57;10.93;;;;;;;;;;4974844;28;20097;-71
2023/06/23 06:54:29;;;;;;;21.65;13.77;;;;;;;;;;4974656;28;20030;-73
2023/06/23 06:56:56;;;;;;;29.73;17.02;;;;;;;;;;4974297;28;20030;-72
2023/06/23 06:59:23;;;;;;;17.15;11.70;;;;;;;;;;4969809;28;20026;-73
2023/06/23 07:01:50;;;;;;;15.77;11.30;;;;;;;;;;4957002;29;20030;-75
2023/06/23 07:04:17;;;;;;;16.08;11.80;;;;;;;;;;4954246;29;20702;-75
2023/06/23 07:06:44;;;;;;;13.02;10.93;;;;;;;;;;4954946;29;20174;-74
2023/06/23 07:09:10;;;;;;;12.95;10.32;;;;;;;;;;4955333;29;20054;-74
2023/06/23 07:11:37;;;;;;;15.52;10.98;;;;;;;;;;4954870;29;20500;-73
2023/06/23 07:14:04;;;;;;;15.65;12.35;;;;;;;;;;4954914;29;20083;-73
2023/06/23 07:16:33;;;;;;;21.00;12.68;;;;;;;;;;4955227;29;20050;-73
2023/06/23 07:19:00;;;;;;;23.45;14.95;;;;;;;;;;4953569;29;20074;-74
2023/06/23 07:21:27;;;;;;;26.80;16.35;;;;;;;;;;4954219;29;20027;-73
2023/06/23 07:23:53;;;;;;;12.70;10.30;;;;;;;;;;4954609;29;20031;-73
2023/06/23 07:26:20;;;;;;;15.45;9.70;;;;;;;;;;4954781;29;20027;-73
2023/06/23 07:28:47;;;;;;;14.20;9.93;;;;;;;;;;4964270;28;20015;-72
2023/06/23 07:31:14;;;;;;;15.95;9.70;;;;;;;;;;4965850;28;20051;-72
2023/06/23 07:33:41;;;;;;;20.30;11.80;;;;;;;;;;4955055;29;20031;-72
2023/06/23 07:36:08;;;;;;;22.10;13.52;;;;;;;;;;4965099;28;20032;-71
2023/06/23 07:38:34;;;;;;;25.92;12.07;;;;;;;;;;4964902;28;20101;-72
2023/06/23 07:41:01;;;;;;;13.77;9.00;;;;;;;;;;4961182;28;20034;-74
2023/06/23 07:43:28;;;;;;;17.50;10.85;;;;;;;;;;4968798;28;20477;-74
2023/06/23 07:45:54;;;;;;;15.10;10.90;;;;;;;;;;4974070;28;20530;-73
2023/06/23 07:48:21;;;;;;;15.80;10.63;;;;;;;;;;4964861;28;20050;-76
2023/06/23 07:50:48;;;;;;;17.17;10.90;;;;;;;;;;4965929;28;20055;-73
2023/06/23 07:53:14;;;;;;;17.10;11.93;;;;;;;;;;4973030;28;20035;-74
2023/06/23 07:55:41;;;;;;;16.98;11.02;;;;;;;;;;4977375;28;20030;-73
2023/06/23 07:58:11;;;;;;;18.00;11.02;;;;;;;;;;4977334;28;20023;-73
2023/06/23 08:00:37;;;;;;;29.65;25.38;;;;;;;;;;4960067;28;20027;-73
2023/06/23 08:03:04;;;;;;;15.32;11.27;;;;;;;;;;4977367;28;20026;-73
2023/06/23 08:05:31;;;;;;;19.67;10.93;;;;;;;;;;4977383;28;20037;-73
2023/06/23 08:07:57;;;;;;;15.15;10.95;;;;;;;;;;4977378;28;20031;-74
2023/06/23 08:10:24;;;;;;;12.23;10.20;;;;;;;;;;4977204;28;20026;-71
2023/06/23 08:12:50;;;;;;;15.85;10.50;;;;;;;;;;4958146;28;20118;-77
2023/06/23 08:15:17;;;;;;;15.55;11.00;;;;;;;;;;4968214;28;20038;-72
2023/06/23 08:17:44;;;;;;;16.17;10.70;;;;;;;;;;4967976;28;20477;-72
2023/06/23 08:20:13;;;;;;;13.68;10.63;;;;;;;;;;4966705;28;20084;-73
2023/06/23 08:22:40;;;;;;;19.48;12.55;;;;;;;;;;4966333;28;20031;-73
2023/06/23 08:25:10;;;;;;;17.80;11.30;;;;;;;;;;4967554;28;20031;-73
2023/06/23 08:27:37;;;;;;;14.93;11.20;;;;;;;;;;4967579;28;20432;-73
2023/06/23 08:30:04;;;;;;;11.73;10.05;;;;;;;;;;4965916;28;20023;-73
2023/06/23 08:32:31;;;;;;;24.08;18.75;;;;;;;;;;4966866;28;20046;-72
2023/06/23 08:34:58;;;;;;;27.00;20.25;;;;;;;;;;4979772;28;20564;-72
2023/06/23 08:37:24;;;;;;;52.50;35.05;;;;;;;;;;4971684;28;20479;-70
2023/06/23 08:39:51;;;;;;;28.15;22.70;;;;;;;;;;4971940;28;20031;-71
2023/06/23 08:42:18;;;;;;;22.20;17.40;;;;;;;;;;4967320;28;20031;-71
2023/06/23 08:44:45;;;;;;;22.42;15.88;;;;;;;;;;4966986;28;20042;-71
2023/06/23 08:47:15;;;;;;;24.63;17.63;;;;;;;;;;4948065;28;20023;-72
2023/06/23 08:49:42;;;;;;;29.00;19.77;;;;;;;;;;4965291;28;20388;-71
2023/06/23 08:52:10;;;;;;;17.42;13.77;;;;;;;;;;4965413;28;20164;-72
2023/06/23 08:54:37;;;;;;;19.40;14.65;;;;;;;;;;4965494;28;20058;-73
2023/06/23 08:57:06;;;;;;;22.30;13.68;;;;;;;;;;4966476;28;20015;-72
2023/06/23 08:59:32;;;;;;;34.10;12.73;;;;;;;;;;4965314;28;20024;-72
2023/06/23 09:01:59;;;;;;;24.17;17.58;;;;;;;;;;4967774;28;20379;-72
2023/06/23 09:04:26;;;;;;;18.50;10.65;;;;;;;;;;4969058;28;20559;-72
2023/06/23 09:06:52;;;;;;;13.15;10.05;;;;;;;;;;4967611;28;20071;-72
2023/06/23 09:09:20;;;;;;;20.50;14.27;;;;;;;;;;4964222;28;20027;-71
2023/06/23 09:11:47;;;;;;;14.68;9.98;;;;;;;;;;4966520;28;20534;-74
2023/06/23 09:14:13;;;;;;;15.43;11.63;;;;;;;;;;4967003;28;20045;-70
2023/06/23 09:16:40;;;;;;;44.33;26.88;;;;;;;;;;4967858;28;20476;-72
2023/06/23 09:19:07;;;;;;;54.75;29.88;;;;;;;;;;4964881;28;20020;-71
2023/06/23 09:21:37;;;;;;;26.55;15.98;;;;;;;;;;4950623;28;20388;-73
2023/06/23 09:24:05;;;;;;;16.85;12.45;;;;;;;;;;4967941;28;20031;-75
2023/06/23 09:26:47;;;;;;;13.75;10.55;;;;;;;;;;4966145;28;20400;-72
2023/06/23 09:29:15;;;;;;;16.83;10.82;;;;;;;;;;4965627;28;20066;-74
2023/06/23 09:31:42;;;;;;;18.17;11.02;;;;;;;;;;4965766;28;20408;-74
2023/06/23 09:34:09;;;;;;;18.02;11.27;;;;;;;;;;4966156;28;20487;-72
2023/06/23 09:36:37;;;;;;;26.60;12.85;;;;;;;;;;4948667;28;20396;-73
2023/06/23 09:39:03;;;;;;;51.50;36.50;;;;;;;;;;4982082;28;20023;-72
2023/06/23 09:41:34;;;;;;;129.77;91.18;;;;;;;;;;4985333;28;20027;-72
2023/06/23 09:44:00;;;;;;;45.22;33.70;;;;;;;;;;4975462;28;20023;-72
2023/06/23 09:46:32;;;;;;;19.85;11.68;;;;;;;;;;4991306;28;20027;-70
2023/06/23 09:49:01;;;;;;;19.27;11.55;;;;;;;;;;4980746;28;20025;-69
2023/06/23 09:51:27;;;;;;;66.95;50.22;;;;;;;;;;4985602;28;20023;-73
2023/06/23 09:53:58;;;;;;;469.05;351.08;;;;;;;;;;4969427;28;20027;-68
2023/06/23 09:56:24;;;;;;;509.88;392.33;;;;;;;;;;4974567;28;20135;-70
2023/06/23 09:58:51;;;;;;;367.45;284.85;;;;;;;;;;4974061;28;20025;-70
2023/06/23 10:01:19;;;;;;;199.57;148.13;;;;;;;;;;4965609;28;20027;-73
2023/06/23 10:03:47;;;;;;;138.40;105.90;;;;;;;;;;4983082;28;20370;-71
2023/06/23 10:06:34;;;;;;;78.90;54.20;;;;;;;;;;4990217;28;20063;-72
2023/06/23 10:09:03;;;;;;;53.58;37.22;;;;;;;;;;4972803;28;20035;-71
2023/06/23 10:11:40;;;;;;;41.65;27.23;;;;;;;;;;4985146;28;20031;-72
2023/06/23 10:14:08;;;;;;;45.63;27.23;;;;;;;;;;4988670;28;20027;-68
2023/06/23 10:16:36;;;;;;;71.65;37.63;;;;;;;;;;4989741;28;20061;-70
2023/06/23 10:19:03;;;;;;;178.35;115.68;;;;;;;;;;4962346;28;20027;-71
2023/06/23 10:21:31;;;;;;;78.82;40.17;;;;;;;;;;4968647;28;20031;-70
2023/06/23 10:24:03;;;;;;;89.43;47.17;;;;;;;;;;4966341;28;20027;-71
2023/06/23 10:26:34;;;;;;;;;;;;;;;;;;4965084;28;20058;-70
2023/06/23 10:29:01;;;;;;;88.68;46.05;;;;;;;;;;4967156;28;19948;-70
2023/06/23 10:31:31;;;;;;;94.93;44.92;;;;;;;;;;4970667;28;20057;-73
2023/06/23 10:34:03;;;;;;;50.95;26.60;;;;;;;;;;4984650;28;20034;-70
2023/06/23 10:36:31;;;;;;;38.25;21.13;;;;;;;;;;4989590;28;20019;-69
2023/06/23 10:39:00;;;;;;;38.90;20.80;;;;;;;;;;4973612;28;20034;-70
2023/06/23 10:41:27;;;;;;;61.00;30.58;;;;;;;;;;4974420;28;20035;-69
2023/06/23 10:43:56;;;;;;;52.08;27.23;;;;;;;;;;4988763;28;20065;-70
2023/06/23 10:46:24;;;;;;;39.78;20.48;;;;;;;;;;4979292;28;20069;-66
2023/06/23 10:48:51;;;;;;;40.10;20.50;;;;;;;;;;4988562;28;20031;-69
2023/06/23 10:51:18;;;;;;;34.67;19.50;;;;;;;;;;4966656;28;20568;-71
2023/06/23 10:53:45;;;;;;;36.60;22.45;;;;;;;;;;4986239;28;20035;-71
2023/06/23 10:56:29;;;;;;;32.60;22.02;;;;;;;;;;4979194;28;20115;-72
2023/06/23 10:58:56;;;;;;;41.53;26.90;;;;;;;;;;4961061;28;20023;-71
2023/06/23 11:01:23;;;;;;;25.85;16.50;;;;;;;;;;4979045;28;20494;-71
2023/06/23 11:04:16;;;;;;;36.03;22.23;;;;;;;;;;4951917;28;20058;-71
2023/06/23 11:06:42;;;;;;;32.53;19.77;;;;;;;;;;4970756;28;20057;-70
2023/06/23 11:09:29;;;;;;;30.77;17.95;;;;;;;;;;4978880;28;20054;-71
2023/06/23 11:11:59;;;;;;;33.75;19.52;;;;;;;;;;4953987;28;20062;-68
2023/06/23 11:14:26;;;;;;;32.67;20.30;;;;;;;;;;4975805;28;20086;-68
2023/06/23 11:16:53;;;;;;;41.47;20.60;;;;;;;;;;4994886;28;20153;-70
2023/06/23 11:19:28;;;;;;;35.55;22.45;;;;;;;;;;4986642;28;20099;-70
2023/06/23 11:22:09;;;;;;;52.15;26.88;;;;;;;;;;4955092;28;20037;-69
2023/06/23 11:24:35;;;;;;;35.97;19.50;;;;;;;;;;4974607;28;20026;-70
2023/06/23 11:27:03;;;;;;;46.30;21.85;;;;;;;;;;4972043;28;20031;-71
2023/06/23 11:29:31;;;;;;;26.45;14.75;;;;;;;;;;4969737;28;20031;-70
2023/06/23 11:32:08;;;;;;;32.17;15.68;;;;;;;;;;4966573;28;20050;-70
2023/06/23 11:34:57;;;;;;;28.55;13.77;;;;;;;;;;4949096;28;20031;-69
2023/06/23 11:37:26;;;;;;;20.73;13.50;;;;;;;;;;4974212;28;20029;-71
2023/06/23 11:39:56;;;;;;;23.38;12.60;;;;;;;;;;4970980;28;20492;-69
2023/06/23 11:42:24;;;;;;;27.90;14.05;;;;;;;;;;4968237;28;20357;-73
2023/06/23 11:44:51;;;;;;;23.63;13.40;;;;;;;;;;4967768;28;20051;-70
2023/06/23 11:47:24;;;;;;;24.20;12.95;;;;;;;;;;4967144;28;20502;-72
2023/06/23 11:49:51;;;;;;;25.13;12.68;;;;;;;;;;4967036;28;20114;-71
2023/06/23 11:52:18;;;;;;;24.55;13.20;;;;;;;;;;4966125;28;20078;-69
2023/06/23 11:54:45;;;;;;;20.67;13.10;;;;;;;;;;4967641;28;20034;-70
2023/06/23 11:57:12;;;;;;;21.33;13.05;;;;;;;;;;4963747;28;20031;-69
2023/06/23 11:59:39;;;;;;;24.70;14.43;;;;;;;;;;4971449;28;20019;-71
2023/06/23 12:02:06;;;;;;;28.65;16.75;;;;;;;;;;4967766;28;20173;-68
2023/06/23 12:04:34;;;;;;;31.20;16.90;;;;;;;;;;4969243;28;20507;-70
2023/06/23 12:07:00;;;;;;;24.63;14.57;;;;;;;;;;4968840;28;20031;-70
2023/06/23 12:09:27;;;;;;;29.75;14.35;;;;;;;;;;4965805;28;20026;-69
2023/06/23 12:11:55;;;;;;;22.08;13.20;;;;;;;;;;4967364;28;20187;-70
2023/06/23 12:14:33;;;;;;;27.73;15.30;;;;;;;;;;4968907;28;20050;-71
2023/06/23 12:17:04;;;;;;;30.25;15.55;;;;;;;;;;4972492;28;20026;-69
2023/06/23 12:19:32;;;;;;;36.22;16.35;;;;;;;;;;4969552;28;20107;-69
2023/06/23 12:22:00;;;;;;;30.13;16.73;;;;;;;;;;4973526;28;20034;-70
2023/06/23 12:24:27;;;;;;;31.92;18.10;;;;;;;;;;4973217;28;20188;-69
2023/06/23 12:26:54;;;;;;;28.33;17.50;;;;;;;;;;4973451;28;20128;-68
2023/06/23 12:29:21;;;;;;;23.48;16.25;;;;;;;;;;4947877;28;20026;-69
2023/06/23 12:31:57;;;;;;;29.60;16.48;;;;;;;;;;4968254;28;20154;-72
2023/06/23 12:34:32;;;;;;;32.47;17.02;;;;;;;;;;4958749;28;20026;-69
2023/06/23 12:37:11;;;;;;;30.48;18.05;;;;;;;;;;4958466;28;20111;-67
2023/06/23 12:39:38;;;;;;;33.60;18.50;;;;;;;;;;4962013;28;20012;-71
2023/06/23 12:42:07;;;;;;;29.25;15.82;;;;;;;;;;4963296;28;20548;-70
2023/06/23 12:44:36;;;;;;;25.85;14.85;;;;;;;;;;4967096;28;20066;-70
2023/06/23 12:47:04;;;;;;;23.73;15.43;;;;;;;;;;4968672;28;20512;-70
2023/06/23 12:49:34;;;;;;;19.20;12.50;;;;;;;;;;4969979;28;20054;-69
2023/06/23 12:52:01;;;;;;;20.75;14.57;;;;;;;;;;4975678;28;20023;-74
2023/06/23 12:54:28;;;;;;;26.10;14.57;;;;;;;;;;4969666;28;20027;-70
2023/06/23 12:57:03;;;;;;;23.90;14.48;;;;;;;;;;4950940;28;20424;-70
2023/06/23 12:59:30;;;;;;;22.90;14.68;;;;;;;;;;4966169;28;20039;-71
2023/06/23 13:01:58;;;;;;;31.52;15.65;;;;;;;;;;4964490;28;20020;-72
2023/06/23 13:04:24;;;;;;;30.13;15.38;;;;;;;;;;4965568;28;20291;-69
2023/06/23 13:06:51;;;;;;;23.40;13.95;;;;;;;;;;4965910;28;20062;-67
2023/06/23 13:09:18;;;;;;;21.38;14.50;;;;;;;;;;4966458;28;20024;-68
2023/06/23 13:11:45;;;;;;;28.17;15.18;;;;;;;;;;4968450;28;20023;-68
2023/06/23 13:14:12;;;;;;;24.55;14.52;;;;;;;;;;4949519;28;20034;-68
2023/06/23 13:16:39;;;;;;;25.50;14.85;;;;;;;;;;4966234;28;20476;-70
2023/06/23 13:19:06;;;;;;;24.73;14.60;;;;;;;;;;4965679;28;20043;-68
2023/06/23 13:21:32;;;;;;;26.20;15.05;;;;;;;;;;4963923;28;20031;-69
2023/06/23 13:23:59;;;;;;;30.17;15.45;;;;;;;;;;4964599;28;20038;-70
2023/06/23 13:26:25;;;;;;;21.63;14.18;;;;;;;;;;4965742;28;20035;-69
2023/06/23 13:28:52;;;;;;;25.60;14.73;;;;;;;;;;4966034;28;20031;-68
2023/06/23 13:31:19;;;;;;;26.52;14.48;;;;;;;;;;4969750;28;20127;-69
2023/06/23 13:33:45;;;;;;;20.90;14.57;;;;;;;;;;4972170;28;20031;-69
2023/06/23 13:36:12;;;;;;;23.33;15.32;;;;;;;;;;4963627;28;20026;-69
2023/06/23 13:38:42;;;;;;;28.42;16.95;;;;;;;;;;4967162;28;20070;-69
2023/06/23 13:41:09;;;;;;;27.55;15.07;;;;;;;;;;4959345;28;20019;-69
2023/06/23 13:43:35;;;;;;;25.20;14.35;;;;;;;;;;4964679;28;20058;-69
2023/06/23 13:46:02;;;;;;;22.00;14.63;;;;;;;;;;4948086;28;20587;-69
2023/06/23 13:48:29;;;;;;;26.63;13.70;;;;;;;;;;4953481;28;20117;-69
2023/06/23 13:50:55;;;;;;;23.05;13.18;;;;;;;;;;4948719;28;20436;-70
2023/06/23 13:53:24;;;;;;;19.15;11.48;;;;;;;;;;4966177;28;20051;-69
2023/06/23 13:55:51;;;;;;;17.55;11.98;;;;;;;;;;4965628;28;20023;-68
2023/06/23 13:58:18;;;;;;;18.63;12.70;;;;;;;;;;4966632;28;20404;-69
2023/06/23 14:00:45;;;;;;;20.58;12.90;;;;;;;;;;4968548;28;20554;-69
2023/06/23 14:03:11;;;;;;;21.75;13.73;;;;;;;;;;4966259;28;20078;-69
2023/06/23 14:05:38;;;;;;;27.58;15.40;;;;;;;;;;4943263;29;20038;-69
2023/06/23 14:08:05;;;;;;;25.55;15.52;;;;;;;;;;4955500;29;20484;-69
2023/06/23 14:10:32;;;;;;;25.55;16.90;;;;;;;;;;4957571;28;20046;-69
2023/06/23 14:12:58;;;;;;;24.35;16.98;;;;;;;;;;4937067;29;20023;-68
2023/06/23 14:15:25;;;;;;;29.45;16.67;;;;;;;;;;4954287;29;20037;-69
2023/06/23 14:17:52;;;;;;;25.42;15.10;;;;;;;;;;4937433;29;20030;-70
2023/06/23 14:20:19;;;;;;;28.13;15.90;;;;;;;;;;4954413;29;20074;-68
2023/06/23 14:22:46;;;;;;;21.27;14.30;;;;;;;;;;4954634;29;20058;-68
2023/06/23 14:25:13;;;;;;;19.38;11.82;;;;;;;;;;4958001;28;20026;-68